createdAt,value
2018-11-20T00:01:22.924Z,29.32
2018-11-20T00:06:46.330Z,20.15
2018-11-20T00:12:10.139Z,22.27
2018-11-20T00:17:34.220Z,27.30
2018-11-20T00:23:00.721Z,23.73
2018-11-20T00:28:24.299Z,21.82
2018-11-20T00:33:50.813Z,27.10
2018-11-20T00:39:14.349Z,25.08
2018-11-20T00:44:37.631Z,23.50
2018-11-20T00:50:00.964Z,21.37
2018-11-20T00:55:25.644Z,23.12
2018-11-20T01:00:49.507Z,26.12
2018-11-20T01:06:13.003Z,23.47
2018-11-20T01:11:42.974Z,26.85
2018-11-20T01:17:06.734Z,19.25
2018-11-20T01:22:30.260Z,26.25
2018-11-20T01:27:53.819Z,27.40
2018-11-20T01:33:17.305Z,24.30
2018-11-20T01:38:40.827Z,25.48
2018-11-20T01:44:07.678Z,25.35
2018-11-20T01:49:31.106Z,26.97
2018-11-20T01:54:54.400Z,24.40
2018-11-20T02:00:17.989Z,22.67
2018-11-20T02:05:44.551Z,26.30
2018-11-20T02:11:08.517Z,21.65
2018-11-20T02:16:32.154Z,24.40
2018-11-20T02:21:55.884Z,22.80
2018-11-20T02:27:19.678Z,27.27
2018-11-20T02:32:42.882Z,27.50
2018-11-20T02:38:06.826Z,20.35
2018-11-20T02:43:30.826Z,21.05
2018-11-20T02:48:54.080Z,24.45
2018-11-20T02:54:20.697Z,25.68
2018-11-20T02:59:46.911Z,20.95
2018-11-20T03:05:10.218Z,25.10
2018-11-20T03:10:33.591Z,26.27
2018-11-20T03:15:57.217Z,25.85
2018-11-20T03:21:21.118Z,20.75
2018-11-20T03:26:45.037Z,22.15
2018-11-20T03:32:08.288Z,29.65
2018-11-20T03:37:31.853Z,25.60
2018-11-20T03:42:55.189Z,29.35
2018-11-20T03:48:18.182Z,27.65
2018-11-20T03:53:42.057Z,27.87
2018-11-20T03:59:05.590Z,26.23
2018-11-20T04:04:28.830Z,29.30
2018-11-20T04:09:52.829Z,27.90
2018-11-20T04:15:16.439Z,28.87
2018-11-20T04:20:39.631Z,25.00
2018-11-20T04:26:06.029Z,24.85
2018-11-20T04:31:32.759Z,25.68
2018-11-20T04:36:56.626Z,25.48
2018-11-20T04:42:20.214Z,24.45
2018-11-20T04:47:44.128Z,24.18
2018-11-20T04:53:07.493Z,30.30
2018-11-20T04:58:31.035Z,22.25
2018-11-20T05:03:54.898Z,23.07
2018-11-20T05:09:18.617Z,20.10
2018-11-20T05:14:42.278Z,26.27
2018-11-20T05:20:05.876Z,25.57
2018-11-20T05:25:37.127Z,26.07
2018-11-20T05:28:40.560Z,20.43
2018-11-20T05:31:47.133Z,23.47
2018-11-20T05:34:41.712Z,25.10
2018-11-20T05:37:49.263Z,25.52
2018-11-20T05:40:56.769Z,31.10
2018-11-20T05:43:37.464Z,25.17
2018-11-20T05:49:01.076Z,25.32
2018-11-20T05:54:24.616Z,25.12
2018-11-20T05:59:48.696Z,23.00
2018-11-20T06:05:15.487Z,28.62
2018-11-20T06:10:39.001Z,25.70
2018-11-20T06:16:02.415Z,24.23
2018-11-20T06:21:28.503Z,23.38
2018-11-20T06:26:51.914Z,28.27
2018-11-20T06:29:55.696Z,27.77
2018-11-20T06:32:39.700Z,23.02
2018-11-20T06:38:03.343Z,27.93
2018-11-20T06:43:29.369Z,23.10
2018-11-20T06:48:59.624Z,23.85
2018-11-20T06:54:22.926Z,30.75
2018-11-20T06:59:46.348Z,23.75
2018-11-20T07:05:12.230Z,23.07
2018-11-20T07:10:35.750Z,28.23
2018-11-20T07:15:59.479Z,21.85
2018-11-20T07:21:22.292Z,23.10
2018-11-20T07:26:48.857Z,18.30
2018-11-20T07:32:12.900Z,20.55
2018-11-20T07:37:39.686Z,17.23
2018-11-20T07:43:03.077Z,20.02
2018-11-20T07:48:26.285Z,21.93
2018-11-20T07:53:49.522Z,22.70
2018-11-20T07:59:15.738Z,18.77
2018-11-20T08:04:39.053Z,27.00
2018-11-20T08:10:05.474Z,22.27
2018-11-20T08:15:31.981Z,25.62
2018-11-20T08:20:55.270Z,19.70
2018-11-20T08:26:18.785Z,24.20
2018-11-20T08:31:42.472Z,21.42
2018-11-20T08:34:46.457Z,21.02
2018-11-20T08:37:28.092Z,23.55
2018-11-20T08:42:51.590Z,23.62
2018-11-20T08:48:14.807Z,23.77
2018-11-20T08:53:38.311Z,25.35
2018-11-20T08:59:01.730Z,28.55
2018-11-20T09:04:25.580Z,28.20
2018-11-20T09:09:52.292Z,20.08
2018-11-20T09:15:15.519Z,26.20
2018-11-20T09:20:42.017Z,28.07
2018-11-20T09:26:06.057Z,29.15
2018-11-20T09:31:33.182Z,29.48
2018-11-20T09:36:56.780Z,28.62
2018-11-20T09:42:20.056Z,23.35
2018-11-20T09:47:43.480Z,24.12
2018-11-20T09:53:09.625Z,22.35
2018-11-20T09:58:33.085Z,20.97
2018-11-20T10:03:59.438Z,21.55
2018-11-20T10:09:22.711Z,24.65
2018-11-20T10:14:46.522Z,25.55
2018-11-20T10:20:10.265Z,26.42
2018-11-20T10:25:36.999Z,21.30
2018-11-20T10:31:00.261Z,23.57
2018-11-20T10:36:23.553Z,17.50
2018-11-20T10:41:50.174Z,27.45
2018-11-20T10:47:14.131Z,20.90
2018-11-20T10:52:38.265Z,17.67
2018-11-20T10:58:01.497Z,21.77
2018-11-20T11:03:27.547Z,19.95
2018-11-20T11:08:56.999Z,16.55
2018-11-20T11:14:20.437Z,18.92
2018-11-20T11:19:43.853Z,19.02
2018-11-20T11:25:07.552Z,18.73
2018-11-20T11:30:30.940Z,16.32
2018-11-20T11:35:54.668Z,23.32
2018-11-20T11:41:37.277Z,20.32
2018-11-20T11:47:01.127Z,18.87
2018-11-20T11:52:30.395Z,17.37
2018-11-20T11:57:53.549Z,23.55
2018-11-20T12:03:17.065Z,21.25
2018-11-20T12:08:41.179Z,26.37
2018-11-20T12:14:04.462Z,21.25
2018-11-20T12:19:27.820Z,21.68
2018-11-20T12:24:51.941Z,17.40
2018-11-20T12:30:19.279Z,21.73
2018-11-20T12:35:42.799Z,16.20
2018-11-20T12:41:12.954Z,18.37
2018-11-20T12:46:36.496Z,13.65
2018-11-20T12:51:59.989Z,15.05
2018-11-20T12:57:23.201Z,24.23
2018-11-20T13:02:47.354Z,20.48
2018-11-20T13:08:11.150Z,23.40
2018-11-20T13:13:40.877Z,19.35
2018-11-20T13:19:07.381Z,28.02
2018-11-20T13:24:30.485Z,20.82
2018-11-20T13:29:57.576Z,19.32
2018-11-20T13:35:21.848Z,23.47
2018-11-20T13:40:46.140Z,18.40
2018-11-20T13:46:11.940Z,19.95
2018-11-20T13:51:34.978Z,21.75
2018-11-20T13:57:01.200Z,20.60
2018-11-20T14:02:27.825Z,19.80
2018-11-20T14:07:54.162Z,22.87
2018-11-20T14:13:20.419Z,19.55
2018-11-20T14:18:49.782Z,16.97
2018-11-20T14:24:13.104Z,21.25
2018-11-20T14:29:37.113Z,19.67
2018-11-20T14:33:23.624Z,22.98
2018-11-20T14:36:04.753Z,22.60
2018-11-20T14:41:28.628Z,21.75
2018-11-20T14:46:52.000Z,22.32
2018-11-20T14:52:21.950Z,21.42
2018-11-20T14:57:45.820Z,22.05
2018-11-20T15:03:12.375Z,20.20
2018-11-20T15:08:36.024Z,22.67
2018-11-20T15:13:59.902Z,24.02
2018-11-20T15:19:26.458Z,22.17
2018-11-20T15:24:52.941Z,28.05
2018-11-20T15:30:16.490Z,21.02
2018-11-20T15:35:40.171Z,23.00
2018-11-20T15:41:06.597Z,18.90
2018-11-20T15:46:30.199Z,20.75
2018-11-20T15:51:53.813Z,23.85
2018-11-20T15:57:17.055Z,22.55
2018-11-20T16:02:43.534Z,31.15
2018-11-20T16:08:07.570Z,19.20
2018-11-20T16:13:31.209Z,20.10
2018-11-20T16:19:15.821Z,24.12
2018-11-20T16:24:42.595Z,22.87
2018-11-20T16:30:06.422Z,25.00
2018-11-20T16:35:29.908Z,27.65
2018-11-20T16:40:53.312Z,22.40
2018-11-20T16:46:17.199Z,26.93
2018-11-20T16:51:46.993Z,24.45
2018-11-20T16:57:10.840Z,30.00
2018-11-20T17:02:34.337Z,32.60
2018-11-20T17:08:00.496Z,28.02
2018-11-20T17:13:30.082Z,27.52
2018-11-20T17:18:59.572Z,26.48
2018-11-20T17:24:22.900Z,24.40
2018-11-20T17:29:47.012Z,24.60
2018-11-20T17:40:42.533Z,24.82
2018-11-20T17:46:06.745Z,32.35
2018-11-20T17:51:30.738Z,31.85
2018-11-20T17:56:54.310Z,29.32
2018-11-20T18:02:17.875Z,25.62
2018-11-20T18:07:41.683Z,30.37
2018-11-20T18:13:04.915Z,27.22
2018-11-20T18:18:28.473Z,34.03
2018-11-20T18:23:55.704Z,33.33
2018-11-20T18:29:19.708Z,29.32
2018-11-20T18:34:44.280Z,38.35
2018-11-20T18:40:06.754Z,42.35
2018-11-20T18:45:30.549Z,39.27
2018-11-20T18:50:54.375Z,35.58
2018-11-20T18:56:18.375Z,45.43
2018-11-20T19:01:42.031Z,49.08
2018-11-20T19:12:40.245Z,36.08
2018-11-20T19:18:20.231Z,38.88
2018-11-20T19:23:43.823Z,40.55
2018-11-20T19:29:07.179Z,41.08
2018-11-20T19:34:30.729Z,45.98
2018-11-20T19:39:54.129Z,33.10
2018-11-20T19:45:17.804Z,38.42
2018-11-20T19:50:41.590Z,35.35
2018-11-20T19:56:08.176Z,33.73
2018-11-20T20:01:31.732Z,47.75
2018-11-20T20:06:58.274Z,38.75
2018-11-20T20:12:24.980Z,42.38
2018-11-20T20:17:48.457Z,35.85
2018-11-20T20:23:15.525Z,35.45
2018-11-20T20:28:38.752Z,39.60
2018-11-20T20:34:02.496Z,44.33
2018-11-20T20:39:29.170Z,34.70
2018-11-20T20:44:55.612Z,41.55
2018-11-20T20:50:25.439Z,39.58
2018-11-20T20:55:55.071Z,39.45
2018-11-20T21:01:18.449Z,34.75
2018-11-20T21:06:42.404Z,40.28
2018-11-20T21:12:05.961Z,38.75
2018-11-20T21:17:30.264Z,46.35
2018-11-20T21:22:53.685Z,54.65
2018-11-20T21:28:17.605Z,51.40
2018-11-20T21:33:44.830Z,51.37
2018-11-20T21:39:08.731Z,54.53
2018-11-20T21:44:32.128Z,57.83
2018-11-20T21:47:35.805Z,45.78
2018-11-20T21:50:16.801Z,50.90
2018-11-20T21:55:47.602Z,51.42
2018-11-20T22:01:10.580Z,54.90
2018-11-20T22:06:40.653Z,46.92
2018-11-20T22:12:07.408Z,45.50
2018-11-20T22:17:30.658Z,51.95
2018-11-20T22:22:54.492Z,50.12
2018-11-20T22:28:18.646Z,48.17
2018-11-20T22:33:45.533Z,48.40
2018-11-20T22:39:12.636Z,53.80
2018-11-20T22:44:36.773Z,54.77
2018-11-20T22:50:00.281Z,56.95
2018-11-20T22:55:24.089Z,52.25
2018-11-20T23:00:53.699Z,55.73
2018-11-20T23:07:18.456Z,48.17
2018-11-20T23:09:47.411Z,47.25
2018-11-20T23:12:16.168Z,53.98
2018-11-20T23:14:44.957Z,51.45
2018-11-20T23:17:33.040Z,55.20
2018-11-20T23:20:14.362Z,49.95
2018-11-20T23:25:38.082Z,54.08
2018-11-20T23:31:05.216Z,54.03
2018-11-20T23:36:28.415Z,50.85
2018-11-20T23:41:52.008Z,53.13
2018-11-20T23:47:15.219Z,48.68
2018-11-20T23:52:44.821Z,53.60
2018-11-20T23:58:08.656Z,51.90
